sensor_id;sensor_type;location;lat;lon;timestamp;P1;durP1;ratioP1;P2;durP2;ratioP2
28774;SDS011;15926;51.348;6.596;2024-02-26T00:01:39;1.40;;;0.95;;
28774;SDS011;15926;51.348;6.596;2024-02-26T00:04:08;1.42;;;1.23;;
28774;SDS011;15926;51.348;6.596;2024-02-26T00:06:43;4.88;;;1.70;;
28774;SDS011;15926;51.348;6.596;2024-02-26T00:09:09;2.10;;;1.35;;
28774;SDS011;15926;51.348;6.596;2024-02-26T00:11:36;3.38;;;1.48;;
28774;SDS011;15926;51.348;6.596;2024-02-26T00:14:02;1.80;;;1.52;;
28774;SDS011;15926;51.348;6.596;2024-02-26T00:16:28;2.72;;;1.48;;
28774;SDS011;15926;51.348;6.596;2024-02-26T00:18:55;1.35;;;1.20;;
28774;SDS011;15926;51.348;6.596;2024-02-26T00:21:21;1.83;;;1.30;;
28774;SDS011;15926;51.348;6.596;2024-02-26T00:23:47;1.40;;;1.08;;
28774;SDS011;15926;51.348;6.596;2024-02-26T00:26:13;4.10;;;1.20;;
28774;SDS011;15926;51.348;6.596;2024-02-26T00:28:40;2.17;;;1.10;;
28774;SDS011;15926;51.348;6.596;2024-02-26T00:31:06;1.33;;;1.10;;
28774;SDS011;15926;51.348;6.596;2024-02-26T00:33:32;3.53;;;1.10;;
28774;SDS011;15926;51.348;6.596;2024-02-26T00:35:58;3.33;;;1.00;;
28774;SDS011;15926;51.348;6.596;2024-02-26T00:38:24;2.35;;;1.25;;
28774;SDS011;15926;51.348;6.596;2024-02-26T00:40:50;1.80;;;1.50;;
28774;SDS011;15926;51.348;6.596;2024-02-26T00:43:16;2.42;;;1.33;;
28774;SDS011;15926;51.348;6.596;2024-02-26T00:45:42;1.45;;;1.15;;
28774;SDS011;15926;51.348;6.596;2024-02-26T00:48:08;2.40;;;1.17;;
28774;SDS011;15926;51.348;6.596;2024-02-26T00:50:34;1.40;;;1.30;;
28774;SDS011;15926;51.348;6.596;2024-02-26T00:53:01;3.40;;;1.40;;
28774;SDS011;15926;51.348;6.596;2024-02-26T00:55:27;1.80;;;1.20;;
28774;SDS011;15926;51.348;6.596;2024-02-26T00:57:53;1.33;;;1.20;;
28774;SDS011;15926;51.348;6.596;2024-02-26T01:00:19;2.55;;;1.40;;
28774;SDS011;15926;51.348;6.596;2024-02-26T01:02:45;1.20;;;1.05;;
28774;SDS011;15926;51.348;6.596;2024-02-26T01:05:14;1.92;;;1.65;;
28774;SDS011;15926;51.348;6.596;2024-02-26T01:07:41;2.65;;;1.33;;
28774;SDS011;15926;51.348;6.596;2024-02-26T01:10:08;2.38;;;1.30;;
28774;SDS011;15926;51.348;6.596;2024-02-26T01:12:34;3.50;;;0.98;;
28774;SDS011;15926;51.348;6.596;2024-02-26T01:15:03;2.63;;;1.02;;
28774;SDS011;15926;51.348;6.596;2024-02-26T01:19:55;1.33;;;1.00;;
28774;SDS011;15926;51.348;6.596;2024-02-26T01:22:22;2.03;;;0.68;;
28774;SDS011;15926;51.348;6.596;2024-02-26T01:24:48;1.50;;;1.00;;
28774;SDS011;15926;51.348;6.596;2024-02-26T01:27:14;0.70;;;0.70;;
28774;SDS011;15926;51.348;6.596;2024-02-26T01:29:41;0.90;;;0.90;;
28774;SDS011;15926;51.348;6.596;2024-02-26T01:32:07;2.05;;;0.75;;
28774;SDS011;15926;51.348;6.596;2024-02-26T01:34:33;2.45;;;0.80;;
28774;SDS011;15926;51.348;6.596;2024-02-26T01:36:59;1.17;;;0.80;;
28774;SDS011;15926;51.348;6.596;2024-02-26T01:39:26;1.10;;;0.73;;
28774;SDS011;15926;51.348;6.596;2024-02-26T01:41:54;0.90;;;0.73;;
28774;SDS011;15926;51.348;6.596;2024-02-26T01:47:11;1.05;;;0.70;;
28774;SDS011;15926;51.348;6.596;2024-02-26T01:49:38;1.30;;;1.00;;
28774;SDS011;15926;51.348;6.596;2024-02-26T01:52:04;4.63;;;1.25;;
28774;SDS011;15926;51.348;6.596;2024-02-26T01:54:31;1.38;;;1.20;;
28774;SDS011;15926;51.348;6.596;2024-02-26T01:56:58;3.35;;;1.67;;
28774;SDS011;15926;51.348;6.596;2024-02-26T01:59:24;2.97;;;1.83;;
28774;SDS011;15926;51.348;6.596;2024-02-26T02:04:56;2.47;;;1.33;;
28774;SDS011;15926;51.348;6.596;2024-02-26T02:07:22;1.15;;;1.05;;
28774;SDS011;15926;51.348;6.596;2024-02-26T02:09:58;2.60;;;0.90;;
28774;SDS011;15926;51.348;6.596;2024-02-26T02:12:24;1.73;;;1.17;;
28774;SDS011;15926;51.348;6.596;2024-02-26T02:15:00;3.90;;;1.10;;
28774;SDS011;15926;51.348;6.596;2024-02-26T02:20:15;1.92;;;0.90;;
28774;SDS011;15926;51.348;6.596;2024-02-26T02:22:42;2.85;;;1.02;;
28774;SDS011;15926;51.348;6.596;2024-02-26T02:25:08;1.70;;;0.77;;
28774;SDS011;15926;51.348;6.596;2024-02-26T02:27:40;2.63;;;1.15;;
28774;SDS011;15926;51.348;6.596;2024-02-26T02:30:07;2.55;;;1.50;;
28774;SDS011;15926;51.348;6.596;2024-02-26T02:32:43;2.25;;;1.20;;
28774;SDS011;15926;51.348;6.596;2024-02-26T02:35:10;1.52;;;1.13;;
28774;SDS011;15926;51.348;6.596;2024-02-26T02:40:58;3.47;;;1.00;;
28774;SDS011;15926;51.348;6.596;2024-02-26T02:45:53;1.25;;;1.15;;
28774;SDS011;15926;51.348;6.596;2024-02-26T02:51:39;1.77;;;1.15;;
28774;SDS011;15926;51.348;6.596;2024-02-26T02:54:05;1.13;;;0.88;;
28774;SDS011;15926;51.348;6.596;2024-02-26T02:56:31;1.52;;;0.98;;
28774;SDS011;15926;51.348;6.596;2024-02-26T02:59:00;3.97;;;1.25;;
28774;SDS011;15926;51.348;6.596;2024-02-26T03:01:29;1.08;;;0.98;;
28774;SDS011;15926;51.348;6.596;2024-02-26T03:03:58;1.15;;;0.98;;
28774;SDS011;15926;51.348;6.596;2024-02-26T03:06:30;2.92;;;1.20;;
28774;SDS011;15926;51.348;6.596;2024-02-26T03:08:56;2.03;;;1.20;;
28774;SDS011;15926;51.348;6.596;2024-02-26T03:11:22;2.97;;;1.58;;
28774;SDS011;15926;51.348;6.596;2024-02-26T03:13:51;2.53;;;1.65;;
28774;SDS011;15926;51.348;6.596;2024-02-26T03:16:20;3.65;;;1.92;;
28774;SDS011;15926;51.348;6.596;2024-02-26T03:18:46;4.68;;;2.20;;
28774;SDS011;15926;51.348;6.596;2024-02-26T03:21:21;2.58;;;1.63;;
28774;SDS011;15926;51.348;6.596;2024-02-26T03:23:56;1.92;;;1.73;;
28774;SDS011;15926;51.348;6.596;2024-02-26T03:26:22;3.35;;;1.88;;
28774;SDS011;15926;51.348;6.596;2024-02-26T03:28:51;2.58;;;2.13;;
28774;SDS011;15926;51.348;6.596;2024-02-26T03:31:17;3.15;;;1.90;;
28774;SDS011;15926;51.348;6.596;2024-02-26T03:33:45;1.85;;;1.67;;
28774;SDS011;15926;51.348;6.596;2024-02-26T03:36:11;2.85;;;1.83;;
28774;SDS011;15926;51.348;6.596;2024-02-26T03:38:37;3.80;;;1.65;;
28774;SDS011;15926;51.348;6.596;2024-02-26T03:41:03;2.40;;;2.10;;
28774;SDS011;15926;51.348;6.596;2024-02-26T03:43:30;3.25;;;2.08;;
28774;SDS011;15926;51.348;6.596;2024-02-26T03:45:56;2.92;;;2.10;;
28774;SDS011;15926;51.348;6.596;2024-02-26T03:48:23;2.20;;;2.00;;
28774;SDS011;15926;51.348;6.596;2024-02-26T03:50:49;3.45;;;2.33;;
28774;SDS011;15926;51.348;6.596;2024-02-26T03:53:15;3.85;;;2.40;;
28774;SDS011;15926;51.348;6.596;2024-02-26T03:55:41;2.83;;;2.50;;
28774;SDS011;15926;51.348;6.596;2024-02-26T03:58:07;3.90;;;2.80;;
28774;SDS011;15926;51.348;6.596;2024-02-26T04:00:34;2.88;;;2.65;;
28774;SDS011;15926;51.348;6.596;2024-02-26T04:03:03;3.72;;;2.80;;
28774;SDS011;15926;51.348;6.596;2024-02-26T04:05:29;3.13;;;2.25;;
28774;SDS011;15926;51.348;6.596;2024-02-26T04:07:55;2.08;;;1.88;;
28774;SDS011;15926;51.348;6.596;2024-02-26T04:10:21;2.10;;;1.70;;
28774;SDS011;15926;51.348;6.596;2024-02-26T04:12:47;1.58;;;1.48;;
28774;SDS011;15926;51.348;6.596;2024-02-26T04:15:13;1.60;;;1.50;;
28774;SDS011;15926;51.348;6.596;2024-02-26T04:17:39;1.55;;;1.45;;
28774;SDS011;15926;51.348;6.596;2024-02-26T04:20:05;2.33;;;1.60;;
28774;SDS011;15926;51.348;6.596;2024-02-26T04:22:32;2.25;;;1.50;;
28774;SDS011;15926;51.348;6.596;2024-02-26T04:24:58;1.45;;;1.35;;
28774;SDS011;15926;51.348;6.596;2024-02-26T04:27:24;2.58;;;1.50;;
28774;SDS011;15926;51.348;6.596;2024-02-26T04:29:50;3.08;;;1.77;;
28774;SDS011;15926;51.348;6.596;2024-02-26T04:32:17;3.38;;;1.73;;
28774;SDS011;15926;51.348;6.596;2024-02-26T04:34:43;3.47;;;1.80;;
28774;SDS011;15926;51.348;6.596;2024-02-26T04:37:09;2.15;;;1.95;;
28774;SDS011;15926;51.348;6.596;2024-02-26T04:39:42;3.30;;;2.25;;
28774;SDS011;15926;51.348;6.596;2024-02-26T04:42:08;3.72;;;2.53;;
28774;SDS011;15926;51.348;6.596;2024-02-26T04:44:34;3.47;;;2.75;;
28774;SDS011;15926;51.348;6.596;2024-02-26T04:47:00;2.85;;;2.63;;
28774;SDS011;15926;51.348;6.596;2024-02-26T04:49:26;5.43;;;3.00;;
28774;SDS011;15926;51.348;6.596;2024-02-26T04:51:53;2.58;;;2.30;;
28774;SDS011;15926;51.348;6.596;2024-02-26T04:54:19;2.72;;;2.50;;
28774;SDS011;15926;51.348;6.596;2024-02-26T04:56:45;4.05;;;2.65;;
28774;SDS011;15926;51.348;6.596;2024-02-26T04:59:11;3.85;;;2.33;;
28774;SDS011;15926;51.348;6.596;2024-02-26T05:01:40;5.95;;;2.65;;
28774;SDS011;15926;51.348;6.596;2024-02-26T05:04:06;5.00;;;2.65;;
28774;SDS011;15926;51.348;6.596;2024-02-26T05:06:32;4.57;;;2.92;;
28774;SDS011;15926;51.348;6.596;2024-02-26T05:08:58;2.65;;;2.45;;
28774;SDS011;15926;51.348;6.596;2024-02-26T05:11:24;4.35;;;3.63;;
28774;SDS011;15926;51.348;6.596;2024-02-26T05:13:51;5.00;;;3.42;;
28774;SDS011;15926;51.348;6.596;2024-02-26T05:16:20;6.32;;;3.72;;
28774;SDS011;15926;51.348;6.596;2024-02-26T05:18:49;5.88;;;3.78;;
28774;SDS011;15926;51.348;6.596;2024-02-26T05:21:15;4.38;;;3.85;;
28774;SDS011;15926;51.348;6.596;2024-02-26T05:28:40;5.63;;;4.53;;
28774;SDS011;15926;51.348;6.596;2024-02-26T05:31:06;4.32;;;3.85;;
28774;SDS011;15926;51.348;6.596;2024-02-26T05:33:32;4.60;;;4.10;;
28774;SDS011;15926;51.348;6.596;2024-02-26T05:35:58;4.85;;;4.00;;
28774;SDS011;15926;51.348;6.596;2024-02-26T05:38:28;4.85;;;4.10;;
28774;SDS011;15926;51.348;6.596;2024-02-26T05:40:56;7.47;;;4.78;;
28774;SDS011;15926;51.348;6.596;2024-02-26T05:43:23;5.60;;;4.20;;
28774;SDS011;15926;51.348;6.596;2024-02-26T05:45:49;4.43;;;3.88;;
28774;SDS011;15926;51.348;6.596;2024-02-26T05:48:15;5.63;;;3.88;;
28774;SDS011;15926;51.348;6.596;2024-02-26T05:50:41;3.75;;;3.45;;
28774;SDS011;15926;51.348;6.596;2024-02-26T05:53:07;4.20;;;3.78;;
28774;SDS011;15926;51.348;6.596;2024-02-26T05:55:33;4.45;;;4.00;;
28774;SDS011;15926;51.348;6.596;2024-02-26T05:57:59;4.35;;;3.65;;
28774;SDS011;15926;51.348;6.596;2024-02-26T06:00:25;4.32;;;3.92;;
28774;SDS011;15926;51.348;6.596;2024-02-26T06:02:51;3.85;;;3.15;;
28774;SDS011;15926;51.348;6.596;2024-02-26T06:05:17;3.58;;;3.22;;
28774;SDS011;15926;51.348;6.596;2024-02-26T06:07:43;3.70;;;3.08;;
28774;SDS011;15926;51.348;6.596;2024-02-26T06:10:09;2.65;;;2.40;;
28774;SDS011;15926;51.348;6.596;2024-02-26T06:12:35;3.13;;;2.53;;
28774;SDS011;15926;51.348;6.596;2024-02-26T06:15:02;2.95;;;2.75;;
28774;SDS011;15926;51.348;6.596;2024-02-26T06:17:29;4.07;;;2.40;;
28774;SDS011;15926;51.348;6.596;2024-02-26T06:19:55;3.10;;;2.55;;
28774;SDS011;15926;51.348;6.596;2024-02-26T06:22:21;2.67;;;2.28;;
28774;SDS011;15926;51.348;6.596;2024-02-26T06:24:47;4.70;;;2.65;;
28774;SDS011;15926;51.348;6.596;2024-02-26T06:27:13;4.30;;;2.67;;
28774;SDS011;15926;51.348;6.596;2024-02-26T06:29:40;2.75;;;2.05;;
28774;SDS011;15926;51.348;6.596;2024-02-26T06:32:06;3.03;;;2.38;;
28774;SDS011;15926;51.348;6.596;2024-02-26T06:34:41;3.00;;;2.78;;
28774;SDS011;15926;51.348;6.596;2024-02-26T06:37:08;3.20;;;2.90;;
28774;SDS011;15926;51.348;6.596;2024-02-26T06:39:34;2.58;;;2.30;;
28774;SDS011;15926;51.348;6.596;2024-02-26T06:42:00;3.10;;;2.80;;
28774;SDS011;15926;51.348;6.596;2024-02-26T06:44:27;3.88;;;2.42;;
28774;SDS011;15926;51.348;6.596;2024-02-26T06:46:57;4.30;;;2.75;;
28774;SDS011;15926;51.348;6.596;2024-02-26T06:49:24;3.53;;;2.22;;
28774;SDS011;15926;51.348;6.596;2024-02-26T06:51:50;3.75;;;3.40;;
28774;SDS011;15926;51.348;6.596;2024-02-26T06:54:16;2.70;;;2.42;;
28774;SDS011;15926;51.348;6.596;2024-02-26T06:56:42;3.95;;;2.50;;
28774;SDS011;15926;51.348;6.596;2024-02-26T06:59:08;2.72;;;2.53;;
28774;SDS011;15926;51.348;6.596;2024-02-26T07:01:34;4.47;;;3.10;;
28774;SDS011;15926;51.348;6.596;2024-02-26T07:04:00;5.25;;;3.15;;
28774;SDS011;15926;51.348;6.596;2024-02-26T07:06:29;5.95;;;2.90;;
28774;SDS011;15926;51.348;6.596;2024-02-26T07:08:55;4.05;;;3.13;;
28774;SDS011;15926;51.348;6.596;2024-02-26T07:11:21;5.82;;;3.67;;
28774;SDS011;15926;51.348;6.596;2024-02-26T07:13:47;6.20;;;3.70;;
28774;SDS011;15926;51.348;6.596;2024-02-26T07:16:14;4.47;;;3.50;;
28774;SDS011;15926;51.348;6.596;2024-02-26T07:18:40;5.32;;;3.58;;
28774;SDS011;15926;51.348;6.596;2024-02-26T07:21:06;5.00;;;3.30;;
28774;SDS011;15926;51.348;6.596;2024-02-26T07:23:33;3.33;;;2.88;;
28774;SDS011;15926;51.348;6.596;2024-02-26T07:25:59;3.20;;;2.90;;
28774;SDS011;15926;51.348;6.596;2024-02-26T07:28:25;4.32;;;3.58;;
28774;SDS011;15926;51.348;6.596;2024-02-26T07:30:51;4.45;;;3.78;;
28774;SDS011;15926;51.348;6.596;2024-02-26T07:33:17;5.05;;;4.03;;
28774;SDS011;15926;51.348;6.596;2024-02-26T07:35:43;5.60;;;3.30;;
28774;SDS011;15926;51.348;6.596;2024-02-26T07:38:09;4.90;;;3.88;;
28774;SDS011;15926;51.348;6.596;2024-02-26T07:40:35;7.13;;;4.18;;
28774;SDS011;15926;51.348;6.596;2024-02-26T07:43:01;8.52;;;4.20;;
28774;SDS011;15926;51.348;6.596;2024-02-26T07:45:27;5.53;;;4.60;;
28774;SDS011;15926;51.348;6.596;2024-02-26T07:47:53;6.85;;;5.13;;
28774;SDS011;15926;51.348;6.596;2024-02-26T07:50:19;5.43;;;4.57;;
28774;SDS011;15926;51.348;6.596;2024-02-26T07:52:46;6.88;;;4.88;;
28774;SDS011;15926;51.348;6.596;2024-02-26T07:55:12;7.07;;;5.45;;
28774;SDS011;15926;51.348;6.596;2024-02-26T07:57:41;6.65;;;5.38;;
28774;SDS011;15926;51.348;6.596;2024-02-26T08:00:07;6.07;;;4.63;;
28774;SDS011;15926;51.348;6.596;2024-02-26T08:02:34;4.93;;;4.43;;
28774;SDS011;15926;51.348;6.596;2024-02-26T08:05:00;5.50;;;3.97;;
28774;SDS011;15926;51.348;6.596;2024-02-26T08:07:26;5.38;;;4.32;;
28774;SDS011;15926;51.348;6.596;2024-02-26T08:09:53;6.30;;;5.20;;
28774;SDS011;15926;51.348;6.596;2024-02-26T08:12:19;9.52;;;5.63;;
28774;SDS011;15926;51.348;6.596;2024-02-26T08:14:45;8.07;;;5.22;;
28774;SDS011;15926;51.348;6.596;2024-02-26T08:17:11;6.75;;;5.97;;
28774;SDS011;15926;51.348;6.596;2024-02-26T08:19:37;7.25;;;5.70;;
28774;SDS011;15926;51.348;6.596;2024-02-26T08:22:03;6.40;;;4.65;;
28774;SDS011;15926;51.348;6.596;2024-02-26T08:24:32;5.10;;;4.20;;
28774;SDS011;15926;51.348;6.596;2024-02-26T08:26:58;7.10;;;4.40;;
28774;SDS011;15926;51.348;6.596;2024-02-26T08:29:24;7.88;;;4.00;;
28774;SDS011;15926;51.348;6.596;2024-02-26T08:31:50;5.80;;;4.20;;
28774;SDS011;15926;51.348;6.596;2024-02-26T08:34:16;10.23;;;4.85;;
28774;SDS011;15926;51.348;6.596;2024-02-26T08:36:42;9.00;;;5.55;;
28774;SDS011;15926;51.348;6.596;2024-02-26T08:39:09;9.90;;;5.95;;
28774;SDS011;15926;51.348;6.596;2024-02-26T08:41:35;7.40;;;5.22;;
28774;SDS011;15926;51.348;6.596;2024-02-26T08:44:01;8.13;;;6.03;;
28774;SDS011;15926;51.348;6.596;2024-02-26T08:46:27;8.13;;;6.03;;
28774;SDS011;15926;51.348;6.596;2024-02-26T08:48:53;6.65;;;4.80;;
28774;SDS011;15926;51.348;6.596;2024-02-26T08:51:19;8.88;;;5.25;;
28774;SDS011;15926;51.348;6.596;2024-02-26T08:53:45;7.40;;;5.68;;
28774;SDS011;15926;51.348;6.596;2024-02-26T08:56:11;6.93;;;5.60;;
28774;SDS011;15926;51.348;6.596;2024-02-26T08:58:41;7.32;;;5.82;;
28774;SDS011;15926;51.348;6.596;2024-02-26T09:01:08;7.07;;;5.22;;
28774;SDS011;15926;51.348;6.596;2024-02-26T09:03:34;6.78;;;5.38;;
28774;SDS011;15926;51.348;6.596;2024-02-26T09:06:01;8.40;;;5.28;;
28774;SDS011;15926;51.348;6.596;2024-02-26T09:08:27;8.48;;;5.93;;
28774;SDS011;15926;51.348;6.596;2024-02-26T09:10:53;6.82;;;4.88;;
28774;SDS011;15926;51.348;6.596;2024-02-26T09:13:19;8.20;;;5.38;;
28774;SDS011;15926;51.348;6.596;2024-02-26T09:15:46;7.05;;;4.70;;
28774;SDS011;15926;51.348;6.596;2024-02-26T09:18:12;7.25;;;5.70;;
28774;SDS011;15926;51.348;6.596;2024-02-26T09:20:40;7.18;;;6.00;;
28774;SDS011;15926;51.348;6.596;2024-02-26T09:23:06;7.50;;;5.85;;
28774;SDS011;15926;51.348;6.596;2024-02-26T09:25:32;6.75;;;5.00;;
28774;SDS011;15926;51.348;6.596;2024-02-26T09:28:01;7.15;;;5.10;;
28774;SDS011;15926;51.348;6.596;2024-02-26T09:30:28;8.57;;;5.30;;
28774;SDS011;15926;51.348;6.596;2024-02-26T09:32:54;6.82;;;5.13;;
28774;SDS011;15926;51.348;6.596;2024-02-26T09:35:20;7.57;;;5.45;;
28774;SDS011;15926;51.348;6.596;2024-02-26T09:37:49;6.65;;;5.68;;
28774;SDS011;15926;51.348;6.596;2024-02-26T09:40:18;8.57;;;5.03;;
28774;SDS011;15926;51.348;6.596;2024-02-26T09:42:47;6.90;;;5.15;;
28774;SDS011;15926;51.348;6.596;2024-02-26T09:45:21;5.05;;;4.55;;
28774;SDS011;15926;51.348;6.596;2024-02-26T09:47:48;5.75;;;4.97;;
28774;SDS011;15926;51.348;6.596;2024-02-26T09:50:17;5.90;;;4.60;;
28774;SDS011;15926;51.348;6.596;2024-02-26T09:52:47;7.68;;;5.10;;
28774;SDS011;15926;51.348;6.596;2024-02-26T09:55:13;5.15;;;4.20;;
28774;SDS011;15926;51.348;6.596;2024-02-26T09:57:42;6.28;;;4.88;;
28774;SDS011;15926;51.348;6.596;2024-02-26T10:00:10;5.68;;;4.90;;
28774;SDS011;15926;51.348;6.596;2024-02-26T10:02:38;7.13;;;5.10;;
28774;SDS011;15926;51.348;6.596;2024-02-26T10:05:05;7.85;;;5.72;;
28774;SDS011;15926;51.348;6.596;2024-02-26T10:07:42;6.63;;;4.82;;
28774;SDS011;15926;51.348;6.596;2024-02-26T10:10:08;5.85;;;5.15;;
28774;SDS011;15926;51.348;6.596;2024-02-26T10:12:35;7.43;;;5.70;;
28774;SDS011;15926;51.348;6.596;2024-02-26T10:15:01;7.35;;;5.97;;
28774;SDS011;15926;51.348;6.596;2024-02-26T10:17:36;6.53;;;4.95;;
28774;SDS011;15926;51.348;6.596;2024-02-26T10:20:11;6.57;;;5.22;;
28774;SDS011;15926;51.348;6.596;2024-02-26T10:23:02;5.35;;;4.85;;
28774;SDS011;15926;51.348;6.596;2024-02-26T10:25:24;6.93;;;5.30;;
28774;SDS011;15926;51.348;6.596;2024-02-26T10:28:01;8.80;;;5.60;;
28774;SDS011;15926;51.348;6.596;2024-02-26T10:30:27;5.53;;;4.38;;
28774;SDS011;15926;51.348;6.596;2024-02-26T10:32:59;8.32;;;5.43;;
28774;SDS011;15926;51.348;6.596;2024-02-26T10:35:27;5.18;;;4.68;;
28774;SDS011;15926;51.348;6.596;2024-02-26T10:37:56;8.05;;;5.90;;
28774;SDS011;15926;51.348;6.596;2024-02-26T10:40:22;7.55;;;5.38;;
28774;SDS011;15926;51.348;6.596;2024-02-26T10:42:48;6.93;;;5.82;;
28774;SDS011;15926;51.348;6.596;2024-02-26T10:45:17;6.80;;;5.72;;
28774;SDS011;15926;51.348;6.596;2024-02-26T10:47:43;6.63;;;5.75;;
28774;SDS011;15926;51.348;6.596;2024-02-26T10:50:21;7.22;;;5.88;;
28774;SDS011;15926;51.348;6.596;2024-02-26T10:52:48;9.10;;;6.32;;
28774;SDS011;15926;51.348;6.596;2024-02-26T10:55:22;9.02;;;6.47;;
28774;SDS011;15926;51.348;6.596;2024-02-26T10:58:00;7.07;;;5.82;;
28774;SDS011;15926;51.348;6.596;2024-02-26T11:00:31;7.93;;;6.47;;
28774;SDS011;15926;51.348;6.596;2024-02-26T11:02:57;6.68;;;5.45;;
28774;SDS011;15926;51.348;6.596;2024-02-26T11:05:26;8.52;;;5.50;;
28774;SDS011;15926;51.348;6.596;2024-02-26T11:07:58;7.97;;;5.97;;
28774;SDS011;15926;51.348;6.596;2024-02-26T11:10:25;6.50;;;5.18;;
28774;SDS011;15926;51.348;6.596;2024-02-26T11:12:52;8.55;;;4.55;;
28774;SDS011;15926;51.348;6.596;2024-02-26T11:15:20;5.15;;;4.60;;
28774;SDS011;15926;51.348;6.596;2024-02-26T11:17:46;6.72;;;4.60;;
28774;SDS011;15926;51.348;6.596;2024-02-26T11:20:13;4.68;;;4.28;;
28774;SDS011;15926;51.348;6.596;2024-02-26T11:22:43;8.32;;;5.20;;
28774;SDS011;15926;51.348;6.596;2024-02-26T11:25:09;7.88;;;5.25;;
28774;SDS011;15926;51.348;6.596;2024-02-26T11:27:43;8.70;;;5.60;;
28774;SDS011;15926;51.348;6.596;2024-02-26T11:30:10;7.22;;;5.97;;
28774;SDS011;15926;51.348;6.596;2024-02-26T11:32:37;6.05;;;5.30;;
28774;SDS011;15926;51.348;6.596;2024-02-26T11:35:10;7.53;;;5.95;;
28774;SDS011;15926;51.348;6.596;2024-02-26T11:37:56;9.40;;;6.35;;
28774;SDS011;15926;51.348;6.596;2024-02-26T11:40:23;8.68;;;6.50;;
28774;SDS011;15926;51.348;6.596;2024-02-26T11:42:53;6.47;;;5.43;;
28774;SDS011;15926;51.348;6.596;2024-02-26T11:48:05;7.40;;;5.15;;
28774;SDS011;15926;51.348;6.596;2024-02-26T11:50:46;10.05;;;6.32;;
28774;SDS011;15926;51.348;6.596;2024-02-26T11:55:48;9.52;;;5.85;;
28774;SDS011;15926;51.348;6.596;2024-02-26T11:58:14;7.10;;;5.00;;
28774;SDS011;15926;51.348;6.596;2024-02-26T12:00:40;5.63;;;4.97;;
28774;SDS011;15926;51.348;6.596;2024-02-26T12:03:09;10.80;;;6.13;;
28774;SDS011;15926;51.348;6.596;2024-02-26T12:05:37;7.68;;;6.07;;
28774;SDS011;15926;51.348;6.596;2024-02-26T12:08:04;8.90;;;6.90;;
28774;SDS011;15926;51.348;6.596;2024-02-26T12:10:35;10.25;;;7.32;;
28774;SDS011;15926;51.348;6.596;2024-02-26T12:13:19;6.70;;;5.30;;
28774;SDS011;15926;51.348;6.596;2024-02-26T12:15:56;4.97;;;3.97;;
28774;SDS011;15926;51.348;6.596;2024-02-26T12:18:23;6.57;;;4.88;;
28774;SDS011;15926;51.348;6.596;2024-02-26T12:20:59;4.88;;;4.47;;
28774;SDS011;15926;51.348;6.596;2024-02-26T12:23:28;5.03;;;4.50;;
28774;SDS011;15926;51.348;6.596;2024-02-26T12:25:58;4.80;;;4.30;;
28774;SDS011;15926;51.348;6.596;2024-02-26T12:28:31;8.00;;;5.00;;
28774;SDS011;15926;51.348;6.596;2024-02-26T12:30:57;7.18;;;5.05;;
28774;SDS011;15926;51.348;6.596;2024-02-26T12:33:24;7.65;;;5.75;;
28774;SDS011;15926;51.348;6.596;2024-02-26T12:35:51;8.32;;;6.28;;
28774;SDS011;15926;51.348;6.596;2024-02-26T12:38:18;10.40;;;6.50;;
28774;SDS011;15926;51.348;6.596;2024-02-26T12:40:44;11.13;;;7.32;;
28774;SDS011;15926;51.348;6.596;2024-02-26T12:43:10;13.50;;;6.90;;
28774;SDS011;15926;51.348;6.596;2024-02-26T12:45:41;14.23;;;7.13;;
28774;SDS011;15926;51.348;6.596;2024-02-26T12:48:07;7.78;;;5.32;;
28774;SDS011;15926;51.348;6.596;2024-02-26T12:50:34;6.10;;;5.03;;
28774;SDS011;15926;51.348;6.596;2024-02-26T12:53:00;8.35;;;5.47;;
28774;SDS011;15926;51.348;6.596;2024-02-26T12:55:26;6.70;;;5.70;;
28774;SDS011;15926;51.348;6.596;2024-02-26T12:57:53;6.28;;;5.13;;
28774;SDS011;15926;51.348;6.596;2024-02-26T13:00:23;8.40;;;5.60;;
28774;SDS011;15926;51.348;6.596;2024-02-26T13:02:50;8.00;;;6.28;;
28774;SDS011;15926;51.348;6.596;2024-02-26T13:05:25;8.88;;;6.20;;
28774;SDS011;15926;51.348;6.596;2024-02-26T13:07:52;8.93;;;6.57;;
28774;SDS011;15926;51.348;6.596;2024-02-26T13:10:18;9.38;;;6.13;;
28774;SDS011;15926;51.348;6.596;2024-02-26T13:12:48;6.75;;;5.68;;
28774;SDS011;15926;51.348;6.596;2024-02-26T13:15:19;8.88;;;6.07;;
28774;SDS011;15926;51.348;6.596;2024-02-26T13:17:45;11.55;;;6.30;;
28774;SDS011;15926;51.348;6.596;2024-02-26T13:20:11;7.15;;;5.88;;
28774;SDS011;15926;51.348;6.596;2024-02-26T13:22:38;9.60;;;6.18;;
28774;SDS011;15926;51.348;6.596;2024-02-26T13:25:05;7.40;;;5.95;;
28774;SDS011;15926;51.348;6.596;2024-02-26T13:27:33;8.63;;;6.38;;
28774;SDS011;15926;51.348;6.596;2024-02-26T13:30:09;7.80;;;5.43;;
28774;SDS011;15926;51.348;6.596;2024-02-26T13:32:39;7.47;;;5.43;;
28774;SDS011;15926;51.348;6.596;2024-02-26T13:35:09;8.60;;;5.25;;
28774;SDS011;15926;51.348;6.596;2024-02-26T13:37:36;8.63;;;5.30;;
28774;SDS011;15926;51.348;6.596;2024-02-26T13:40:06;8.48;;;6.30;;
28774;SDS011;15926;51.348;6.596;2024-02-26T13:42:34;9.00;;;6.07;;
28774;SDS011;15926;51.348;6.596;2024-02-26T13:45:00;6.80;;;5.95;;
28774;SDS011;15926;51.348;6.596;2024-02-26T13:47:26;6.15;;;4.93;;
28774;SDS011;15926;51.348;6.596;2024-02-26T13:49:54;8.43;;;5.38;;
28774;SDS011;15926;51.348;6.596;2024-02-26T13:52:24;8.90;;;5.57;;
28774;SDS011;15926;51.348;6.596;2024-02-26T13:54:50;7.35;;;5.28;;
28774;SDS011;15926;51.348;6.596;2024-02-26T13:57:17;5.93;;;4.65;;
28774;SDS011;15926;51.348;6.596;2024-02-26T13:59:43;9.88;;;5.18;;
28774;SDS011;15926;51.348;6.596;2024-02-26T14:02:09;6.93;;;5.50;;
28774;SDS011;15926;51.348;6.596;2024-02-26T14:04:36;5.55;;;4.97;;
28774;SDS011;15926;51.348;6.596;2024-02-26T14:07:02;6.90;;;5.28;;
28774;SDS011;15926;51.348;6.596;2024-02-26T14:09:28;7.47;;;5.47;;
28774;SDS011;15926;51.348;6.596;2024-02-26T14:11:54;6.10;;;4.72;;
28774;SDS011;15926;51.348;6.596;2024-02-26T14:14:20;5.05;;;4.45;;
28774;SDS011;15926;51.348;6.596;2024-02-26T14:16:46;6.00;;;4.38;;
28774;SDS011;15926;51.348;6.596;2024-02-26T14:19:12;4.50;;;4.10;;
28774;SDS011;15926;51.348;6.596;2024-02-26T14:21:38;5.15;;;4.00;;
28774;SDS011;15926;51.348;6.596;2024-02-26T14:24:04;7.55;;;4.30;;
28774;SDS011;15926;51.348;6.596;2024-02-26T14:26:31;5.35;;;3.78;;
28774;SDS011;15926;51.348;6.596;2024-02-26T14:28:57;8.05;;;4.10;;
28774;SDS011;15926;51.348;6.596;2024-02-26T14:31:23;4.75;;;3.70;;
28774;SDS011;15926;51.348;6.596;2024-02-26T14:33:50;3.80;;;3.50;;
28774;SDS011;15926;51.348;6.596;2024-02-26T14:36:19;4.15;;;3.78;;
28774;SDS011;15926;51.348;6.596;2024-02-26T14:38:45;3.90;;;3.50;;
28774;SDS011;15926;51.348;6.596;2024-02-26T14:41:12;5.20;;;3.92;;
28774;SDS011;15926;51.348;6.596;2024-02-26T14:43:38;4.18;;;3.78;;
28774;SDS011;15926;51.348;6.596;2024-02-26T14:46:04;5.28;;;3.80;;
28774;SDS011;15926;51.348;6.596;2024-02-26T14:48:30;7.13;;;3.95;;
28774;SDS011;15926;51.348;6.596;2024-02-26T14:50:56;5.13;;;3.60;;
28774;SDS011;15926;51.348;6.596;2024-02-26T14:53:26;3.95;;;3.58;;
28774;SDS011;15926;51.348;6.596;2024-02-26T14:55:57;4.90;;;3.70;;
28774;SDS011;15926;51.348;6.596;2024-02-26T14:58:24;4.18;;;3.08;;
28774;SDS011;15926;51.348;6.596;2024-02-26T15:00:51;4.63;;;3.67;;
28774;SDS011;15926;51.348;6.596;2024-02-26T15:03:17;4.07;;;3.65;;
28774;SDS011;15926;51.348;6.596;2024-02-26T15:05:43;5.65;;;4.03;;
28774;SDS011;15926;51.348;6.596;2024-02-26T15:08:09;7.57;;;4.10;;
28774;SDS011;15926;51.348;6.596;2024-02-26T15:10:39;8.32;;;4.07;;
28774;SDS011;15926;51.348;6.596;2024-02-26T15:13:12;11.13;;;5.55;;
28774;SDS011;15926;51.348;6.596;2024-02-26T15:15:38;5.43;;;3.50;;
28774;SDS011;15926;51.348;6.596;2024-02-26T15:18:06;6.97;;;4.03;;
28774;SDS011;15926;51.348;6.596;2024-02-26T15:20:33;8.13;;;4.45;;